WMSAVLVT

Guest
Details From WMSA - Kuala Lumpur S Abdul Aziz Shah
To VLVT - Wattay Intl
Flight Number -
Tags Generated
Created
Modified
Stats Distance 895 nm / 1,658 km
Max Altitude 0 ft / 0 m
Waypoints 5
Social Downloads 0
Likes 0
Share VATSIM

Download

Looking for another format? Having issues loading an existing format? Contact us
Advertisement - Login to hide

Notes

Generated

Route

WMSA NTW29 PETRA WY VLVT

ID Type Via Altitude Latitude Longitude Leg Dist Tot Dist Heading (true) Name
O WMSA APT - 0 ft / 0 m 3.14533˚ 101.54075˚ - 0 nm - -
NTW29 FIX - 0 ft / 0 m 6.53751˚ 101.72217˚ 204 nm 204 nm 3° / 3° -
PETRA FIX - 0 ft / 0 m 10.23659˚ 101.90275˚ 222 nm 426 nm 3° / 3° -
WY NDB - 0 ft / 0 m 18.00444˚ 102.54583˚ 468 nm 894 nm 5° / 5° WATTAY NDB
O VLVT APT - 0 ft / 0 m 17.99781˚ 102.55332˚ 0 nm 895 nm 133° / 133° -

Altitude Profile

Advertisement - Login to hide

Weather


0- 5 10 15 20 25 30 35+ Temperature / ° C

Clouds and Precipitation
Forecast for 2018-05-26 12:00 UTC. Updated an hour ago

Ground ~20,000 ft ~40,000 ft Winds

WMSA

Details ICAO WMSA (SZB)
Name Kuala Lumpur S Abdul Aziz Shah
Region Malaysia (Peninsular Malaysia)
Timezone Asia/Kuala_Lumpur (UTC+8.0)
Stats Elevation 90 ft / 27 m (AMSL)
Location 3.130583° 101.549334°
Runways 1
Magnetic Variation 0.023° W

METAR

WMSA 261200Z VRB02KT 6000 -RA FEW003 FEW017CB SCT025 OVC250 25/24 Q1009

Decode

TAF

TAF WMSA 261100Z 2612/2712 VRB02KT 9999 FEW017CB SCT020 TEMPO 2706/2710 29008KT 2000 TSRA FEW008 FEW015CB SCT018

Decode

Departure Runways

ID Width Length Bearing (true) Bearing (mag) Surface Threshold Offset Overrun Length
15 148 ft / 45 m 12,450 ft / 3,795 m 149.84° 149.86° Asphalt 0 ft / 0 m 200 ft / 61 m
33 148 ft / 45 m 12,450 ft / 3,795 m 329.84° 329.86° Asphalt 0 ft / 0 m 200 ft / 61 m

VLVT

Details ICAO VLVT (VTE)
Name Vientiane Wattay
Region Laos
Timezone Asia/Vientiane (UTC+7.0)
Stats Elevation 1,850 ft / 564 m (AMSL)
Location 17.988343° 102.563222°
Runways 1
Magnetic Variation 0.902° W

METAR

VLVT 261200Z 00000KT 5000 BR SCT016 BKN040 25/24 Q1007 NOSIG

Decode

TAF

TAF TAF VLVT 261100Z 2612/2712 22006KT 8000 SCT020 SCT050 TEMPO 2612/2615 3000 TSRA SCT010 SCT023CB BKN050

Decode

Destination Runways

ID Width Length Bearing (true) Bearing (mag) Surface Threshold Offset Overrun Length
13 148 ft / 45 m 9,862 ft / 3,006 m 135.42° 136.32° Asphalt 0 ft / 0 m 0 ft / 0 m
31 148 ft / 45 m 9,862 ft / 3,006 m 315.42° 316.32° Asphalt 0 ft / 0 m 0 ft / 0 m

Approach Navaids

Runway Type Ident Frequency Range Bearing (true) Bearing (mag) Slope Elevation
13 Localiser IVTN 109.90 MHz 18 nm / 33 km 135.43° 136.33° - 553 ft / 169 m (AMSL)
13 Glidescope IVTN 109.90 MHz 10 nm / 19 km 136.00° 136.90° 3.00° 550 ft / 168 m (AMSL)
13 DME IVTN 109.90 MHz 18 nm / 33 km - - - 550 ft / 168 m (AMSL)